Time;durP1;ratioP1;P1;durP2;ratioP2;P2;SDS_P1;SDS_P2;PMS_P1;PMS_P2;Temp;Humidity;BMP_temperature;BMP_pressure;BME280_temperature;BME280_humidity;BME280_pressure;Samples;Min_cycle;Max_cycle;Signal;HPM_P1;HPM_P2
2023/04/10 00:01:39;;;;;;;1.30;1.00;;;;;;;;;;5052843;28;20029;-68
2023/04/10 00:04:05;;;;;;;2.47;1.30;;;;;;;;;;5052605;28;20029;-68
2023/04/10 00:06:32;;;;;;;1.75;0.98;;;;;;;;;;5052977;28;20025;-68
2023/04/10 00:08:58;;;;;;;1.60;0.98;;;;;;;;;;5053051;28;20024;-69
2023/04/10 00:11:25;;;;;;;1.70;1.00;;;;;;;;;;5052479;28;20379;-68
2023/04/10 00:13:52;;;;;;;2.97;0.90;;;;;;;;;;5052503;28;20028;-68
2023/04/10 00:16:19;;;;;;;1.58;0.70;;;;;;;;;;5052285;28;20023;-69
2023/04/10 00:18:46;;;;;;;1.50;0.70;;;;;;;;;;5052356;28;20029;-68
2023/04/10 00:21:12;;;;;;;1.13;0.80;;;;;;;;;;5052309;28;20485;-68
2023/04/10 00:23:39;;;;;;;3.95;0.70;;;;;;;;;;5051359;28;20032;-68
2023/04/10 00:26:05;;;;;;;0.70;0.63;;;;;;;;;;5052434;28;20017;-68
2023/04/10 00:28:32;;;;;;;1.35;0.90;;;;;;;;;;5052372;28;20020;-68
2023/04/10 00:30:58;;;;;;;1.70;1.00;;;;;;;;;;5051885;28;20041;-68
2023/04/10 00:33:24;;;;;;;1.80;1.10;;;;;;;;;;5052702;28;20033;-68
2023/04/10 00:35:51;;;;;;;1.88;0.93;;;;;;;;;;5052075;28;20029;-68
2023/04/10 00:38:17;;;;;;;1.02;0.70;;;;;;;;;;5052344;28;20029;-68
2023/04/10 00:40:43;;;;;;;2.28;1.30;;;;;;;;;;5052337;28;20033;-68
2023/04/10 00:43:10;;;;;;;4.25;1.05;;;;;;;;;;5052206;28;20021;-68
2023/04/10 00:45:36;;;;;;;1.08;0.77;;;;;;;;;;5052121;28;20058;-69
2023/04/10 00:48:03;;;;;;;1.20;0.80;;;;;;;;;;5052323;28;20025;-68
2023/04/10 00:50:29;;;;;;;0.88;0.77;;;;;;;;;;5051914;28;20033;-68
2023/04/10 00:52:56;;;;;;;0.93;0.85;;;;;;;;;;5050848;28;20033;-68
2023/04/10 00:55:23;;;;;;;3.30;1.00;;;;;;;;;;5051804;28;20478;-68
2023/04/10 00:57:49;;;;;;;0.80;0.75;;;;;;;;;;5051960;28;20033;-68
2023/04/10 01:00:16;;;;;;;0.95;0.73;;;;;;;;;;5051831;28;20028;-68
2023/04/10 01:02:42;;;;;;;1.95;1.17;;;;;;;;;;5051870;28;20392;-68
2023/04/10 01:05:10;;;;;;;3.78;1.50;;;;;;;;;;5051589;28;20017;-68
2023/04/10 01:07:45;;;;;;;2.67;1.58;;;;;;;;;;5051861;28;20029;-68
2023/04/10 01:10:17;;;;;;;3.53;1.40;;;;;;;;;;5051754;28;20025;-68
2023/04/10 01:12:53;;;;;;;2.25;1.10;;;;;;;;;;5052038;28;20025;-68
2023/04/10 01:15:20;;;;;;;1.92;1.02;;;;;;;;;;5051538;28;20028;-68
2023/04/10 01:18:00;;;;;;;1.88;1.23;;;;;;;;;;5051431;28;20400;-68
2023/04/10 01:20:30;;;;;;;1.55;0.90;;;;;;;;;;5052114;28;20033;-68
2023/04/10 01:23:15;;;;;;;1.73;1.00;;;;;;;;;;5051822;28;20032;-68
2023/04/10 01:25:47;;;;;;;1.10;0.90;;;;;;;;;;5051494;28;20478;-68
2023/04/10 01:28:20;;;;;;;2.20;0.90;;;;;;;;;;5051582;28;20029;-68
2023/04/10 01:30:56;;;;;;;1.30;1.00;;;;;;;;;;5051038;28;20055;-68
2023/04/10 01:33:26;;;;;;;2.38;0.80;;;;;;;;;;5052294;28;20032;-68
2023/04/10 01:35:55;;;;;;;1.70;1.00;;;;;;;;;;5055496;28;20035;-68
2023/04/10 01:38:23;;;;;;;1.75;1.15;;;;;;;;;;5055254;28;20469;-68
2023/04/10 01:40:51;;;;;;;1.77;0.98;;;;;;;;;;5054119;28;20086;-68
2023/04/10 01:43:19;;;;;;;2.53;0.93;;;;;;;;;;5054997;28;20033;-68
2023/04/10 01:45:47;;;;;;;1.45;0.90;;;;;;;;;;5055544;28;20025;-68
2023/04/10 01:48:16;;;;;;;2.20;0.82;;;;;;;;;;5055253;28;20031;-68
2023/04/10 01:50:43;;;;;;;1.90;0.90;;;;;;;;;;5055038;28;20413;-68
2023/04/10 01:53:09;;;;;;;1.08;0.90;;;;;;;;;;5055172;28;20024;-68
2023/04/10 01:55:36;;;;;;;1.38;1.00;;;;;;;;;;5054992;28;20433;-68
2023/04/10 01:58:06;;;;;;;2.13;1.00;;;;;;;;;;5054880;28;20021;-68
2023/04/10 02:00:40;;;;;;;1.35;0.80;;;;;;;;;;5054824;28;20025;-68
2023/04/10 02:03:07;;;;;;;1.20;1.05;;;;;;;;;;5055040;28;20503;-68
2023/04/10 02:05:52;;;;;;;1.15;1.00;;;;;;;;;;5055043;28;20028;-68
2023/04/10 02:08:22;;;;;;;1.23;1.10;;;;;;;;;;5054709;28;20020;-68
2023/04/10 02:10:56;;;;;;;2.75;1.10;;;;;;;;;;5054874;28;20036;-68
2023/04/10 02:13:24;;;;;;;5.53;1.30;;;;;;;;;;5054324;28;20033;-68
2023/04/10 02:15:51;;;;;;;3.38;1.02;;;;;;;;;;5054644;28;20417;-68
2023/04/10 02:18:18;;;;;;;1.48;0.93;;;;;;;;;;5054700;28;20025;-68
2023/04/10 02:20:45;;;;;;;1.17;0.93;;;;;;;;;;5054757;28;20032;-68
2023/04/10 02:23:11;;;;;;;1.15;0.90;;;;;;;;;;5054781;28;20027;-68
2023/04/10 02:25:37;;;;;;;3.47;1.23;;;;;;;;;;5054395;28;20469;-68
2023/04/10 02:28:04;;;;;;;1.70;1.02;;;;;;;;;;5054171;28;20070;-68
2023/04/10 02:30:31;;;;;;;2.92;1.60;;;;;;;;;;5054251;28;20041;-68
2023/04/10 02:32:58;;;;;;;1.25;1.00;;;;;;;;;;5054610;28;20021;-68
2023/04/10 02:35:25;;;;;;;2.38;1.20;;;;;;;;;;5054285;28;20032;-68
2023/04/10 02:37:51;;;;;;;1.70;0.98;;;;;;;;;;5054562;28;20066;-68
2023/04/10 02:40:18;;;;;;;2.00;0.88;;;;;;;;;;5054250;28;20498;-68
2023/04/10 02:42:44;;;;;;;1.10;1.00;;;;;;;;;;5053713;28;20029;-68
2023/04/10 02:45:10;;;;;;;2.17;1.10;;;;;;;;;;5053434;28;20037;-68
2023/04/10 02:47:37;;;;;;;1.42;1.20;;;;;;;;;;5054397;28;20027;-68
2023/04/10 02:50:03;;;;;;;2.10;1.27;;;;;;;;;;5053861;28;20041;-68
2023/04/10 02:52:29;;;;;;;2.05;1.20;;;;;;;;;;5053811;28;20389;-68
2023/04/10 02:54:56;;;;;;;2.17;1.13;;;;;;;;;;5054224;28;20040;-68
2023/04/10 02:57:22;;;;;;;1.95;1.23;;;;;;;;;;5053819;28;20033;-68
2023/04/10 02:59:52;;;;;;;1.85;1.00;;;;;;;;;;5053940;28;20367;-68
2023/04/10 03:02:18;;;;;;;2.90;1.20;;;;;;;;;;5053950;28;20029;-68
2023/04/10 03:04:45;;;;;;;1.08;0.82;;;;;;;;;;5053746;28;20017;-68
2023/04/10 03:07:11;;;;;;;1.30;1.00;;;;;;;;;;5052318;28;20039;-68
2023/04/10 03:09:37;;;;;;;2.03;0.77;;;;;;;;;;5053846;28;20025;-68
2023/04/10 03:12:04;;;;;;;2.45;0.95;;;;;;;;;;5053342;28;20029;-68
2023/04/10 03:14:30;;;;;;;3.00;0.80;;;;;;;;;;5053751;28;20035;-68
2023/04/10 03:16:56;;;;;;;1.67;1.02;;;;;;;;;;5053687;28;20021;-68
2023/04/10 03:19:25;;;;;;;1.00;0.82;;;;;;;;;;5053780;28;20037;-68
2023/04/10 03:21:52;;;;;;;1.25;0.90;;;;;;;;;;5053657;28;20025;-68
2023/04/10 03:24:18;;;;;;;1.20;0.93;;;;;;;;;;5053472;28;20031;-68
2023/04/10 03:26:45;;;;;;;1.50;1.00;;;;;;;;;;5053395;28;20024;-68
2023/04/10 03:29:12;;;;;;;2.10;1.00;;;;;;;;;;5052888;28;20033;-68
2023/04/10 03:31:39;;;;;;;1.20;1.10;;;;;;;;;;5053295;28;20037;-69
2023/04/10 03:34:05;;;;;;;1.95;1.10;;;;;;;;;;5053579;28;20025;-68
2023/04/10 03:36:32;;;;;;;1.88;1.20;;;;;;;;;;5053173;28;20039;-68
2023/04/10 03:38:58;;;;;;;2.00;0.95;;;;;;;;;;5053544;28;20184;-68
2023/04/10 03:41:24;;;;;;;1.27;1.00;;;;;;;;;;5052860;28;20119;-68
2023/04/10 03:43:50;;;;;;;2.70;1.13;;;;;;;;;;5053118;28;20074;-68
2023/04/10 03:46:17;;;;;;;1.38;0.98;;;;;;;;;;5053131;28;20371;-68
2023/04/10 03:48:43;;;;;;;4.32;1.13;;;;;;;;;;5053336;28;20027;-68
2023/04/10 03:51:09;;;;;;;2.17;0.93;;;;;;;;;;5052730;28;20074;-69
2023/04/10 03:53:36;;;;;;;1.95;1.20;;;;;;;;;;5053120;28;20021;-68
2023/04/10 03:56:02;;;;;;;1.30;1.02;;;;;;;;;;5052927;28;20037;-68
2023/04/10 03:58:29;;;;;;;1.02;0.80;;;;;;;;;;5052886;28;20485;-68
2023/04/10 04:00:55;;;;;;;2.13;1.25;;;;;;;;;;5051663;28;20508;-68
2023/04/10 04:03:22;;;;;;;4.55;1.02;;;;;;;;;;5052488;28;20047;-68
2023/04/10 04:05:48;;;;;;;1.55;1.00;;;;;;;;;;5052661;28;20037;-68
2023/04/10 04:08:14;;;;;;;2.25;1.00;;;;;;;;;;5052699;28;20021;-68
2023/04/10 04:10:41;;;;;;;1.85;1.05;;;;;;;;;;5052034;28;20045;-69
2023/04/10 04:13:07;;;;;;;1.13;0.80;;;;;;;;;;5052487;28;20021;-67
2023/04/10 04:15:33;;;;;;;1.40;1.02;;;;;;;;;;5053175;28;20033;-67
2023/04/10 04:18:00;;;;;;;1.02;0.90;;;;;;;;;;5052255;28;20021;-67
2023/04/10 04:20:26;;;;;;;0.90;0.73;;;;;;;;;;5052479;28;20483;-68
2023/04/10 04:22:52;;;;;;;1.30;0.73;;;;;;;;;;5052684;28;20023;-68
2023/04/10 04:25:19;;;;;;;1.25;0.80;;;;;;;;;;5052201;28;20044;-68
2023/04/10 04:27:45;;;;;;;1.00;0.90;;;;;;;;;;5051000;28;20039;-68
2023/04/10 04:30:12;;;;;;;2.50;1.13;;;;;;;;;;5052491;28;20045;-68
2023/04/10 04:32:38;;;;;;;1.73;1.05;;;;;;;;;;5052507;28;20035;-68
2023/04/10 04:35:04;;;;;;;3.55;1.15;;;;;;;;;;5052123;28;20020;-68
2023/04/10 04:37:31;;;;;;;1.20;0.68;;;;;;;;;;5051983;28;20485;-68
2023/04/10 04:39:57;;;;;;;1.55;0.77;;;;;;;;;;5052008;28;20039;-68
2023/04/10 04:42:23;;;;;;;2.95;0.90;;;;;;;;;;5052078;28;20393;-68
2023/04/10 04:44:50;;;;;;;1.40;0.80;;;;;;;;;;5052156;28;20043;-68
2023/04/10 04:47:16;;;;;;;1.33;1.00;;;;;;;;;;5052124;28;20401;-68
2023/04/10 04:49:42;;;;;;;2.00;1.35;;;;;;;;;;5052242;28;20070;-68
2023/04/10 04:52:09;;;;;;;1.23;1.13;;;;;;;;;;5052160;28;20416;-69
2023/04/10 04:54:35;;;;;;;1.25;1.05;;;;;;;;;;5052016;28;20025;-68
2023/04/10 04:57:02;;;;;;;2.70;1.10;;;;;;;;;;5034361;28;20074;-68
2023/04/10 04:59:28;;;;;;;1.88;1.00;;;;;;;;;;5051923;28;20025;-68
2023/04/10 05:01:55;;;;;;;2.15;1.17;;;;;;;;;;5084079;28;20033;-68
2023/04/10 05:04:21;;;;;;;1.83;1.00;;;;;;;;;;5051738;28;20021;-68
2023/04/10 05:06:47;;;;;;;2.92;1.45;;;;;;;;;;5051626;28;20409;-68
2023/04/10 05:09:14;;;;;;;1.70;1.10;;;;;;;;;;5053742;28;20031;-68
2023/04/10 05:11:40;;;;;;;2.03;1.40;;;;;;;;;;5055960;28;20110;-68
2023/04/10 05:14:07;;;;;;;1.77;1.13;;;;;;;;;;5056137;28;20021;-68
2023/04/10 05:16:33;;;;;;;1.83;1.33;;;;;;;;;;5055715;28;20032;-68
2023/04/10 05:18:59;;;;;;;2.97;2.13;;;;;;;;;;5055974;28;20028;-68
2023/04/10 05:21:26;;;;;;;2.47;2.28;;;;;;;;;;5055782;28;20035;-68
2023/04/10 05:23:52;;;;;;;4.30;2.53;;;;;;;;;;5055717;28;20310;-68
2023/04/10 05:26:19;;;;;;;1.85;1.70;;;;;;;;;;5055648;28;20497;-69
2023/04/10 05:28:45;;;;;;;5.03;1.30;;;;;;;;;;5055705;28;20021;-68
2023/04/10 05:31:11;;;;;;;2.67;1.10;;;;;;;;;;5055444;28;20189;-68
2023/04/10 05:33:37;;;;;;;2.20;1.27;;;;;;;;;;5055564;28;20389;-68
2023/04/10 05:36:04;;;;;;;2.50;1.30;;;;;;;;;;5055581;28;20033;-68
2023/04/10 05:38:30;;;;;;;2.28;1.45;;;;;;;;;;5055304;28;20401;-68
2023/04/10 05:40:57;;;;;;;4.30;2.17;;;;;;;;;;5055651;28;20033;-68
2023/04/10 05:43:23;;;;;;;10.93;4.05;;;;;;;;;;5053947;28;20028;-68
2023/04/10 05:45:49;;;;;;;6.00;3.10;;;;;;;;;;5055626;28;20029;-68
2023/04/10 05:48:16;;;;;;;4.45;2.60;;;;;;;;;;5055417;28;20021;-68
2023/04/10 05:50:42;;;;;;;2.97;1.80;;;;;;;;;;5054945;28;20490;-68
2023/04/10 05:53:13;;;;;;;4.32;2.22;;;;;;;;;;5055628;28;20098;-68
2023/04/10 05:55:40;;;;;;;5.22;1.73;;;;;;;;;;5055262;28;20029;-68
2023/04/10 05:58:06;;;;;;;2.45;1.95;;;;;;;;;;5055150;28;20366;-68
2023/04/10 06:00:32;;;;;;;2.60;1.77;;;;;;;;;;5055146;28;20025;-68
2023/04/10 06:02:59;;;;;;;3.28;1.98;;;;;;;;;;5055047;28;20017;-69
2023/04/10 06:05:25;;;;;;;5.38;2.97;;;;;;;;;;5055008;28;20029;-68
2023/04/10 06:07:52;;;;;;;2.83;1.77;;;;;;;;;;5054606;28;20397;-68
2023/04/10 06:10:18;;;;;;;4.20;1.92;;;;;;;;;;5054947;28;20254;-68
2023/04/10 06:12:45;;;;;;;3.58;2.03;;;;;;;;;;5054638;28;20382;-69
2023/04/10 06:15:11;;;;;;;2.28;1.80;;;;;;;;;;5055056;28;20025;-68
2023/04/10 06:17:42;;;;;;;2.85;1.73;;;;;;;;;;5054661;28;20032;-68
2023/04/10 06:20:09;;;;;;;2.17;1.58;;;;;;;;;;5053092;28;20032;-68
2023/04/10 06:22:35;;;;;;;4.07;1.48;;;;;;;;;;5054781;28;20025;-68
2023/04/10 06:25:01;;;;;;;2.47;1.55;;;;;;;;;;5054437;28;20024;-69
2023/04/10 06:27:28;;;;;;;1.85;1.20;;;;;;;;;;5054320;28;20363;-69
2023/04/10 06:29:54;;;;;;;1.23;1.13;;;;;;;;;;5054199;28;20043;-68
2023/04/10 06:32:21;;;;;;;1.45;1.17;;;;;;;;;;5054419;28;20037;-68
2023/04/10 06:34:47;;;;;;;3.45;2.08;;;;;;;;;;5054421;28;20029;-68
2023/04/10 06:37:13;;;;;;;6.72;2.75;;;;;;;;;;5053496;28;20025;-68
2023/04/10 06:39:40;;;;;;;3.28;2.05;;;;;;;;;;5054379;28;20417;-68
2023/04/10 06:42:06;;;;;;;1.77;1.10;;;;;;;;;;5054166;28;20492;-69
2023/04/10 06:44:32;;;;;;;5.95;3.78;;;;;;;;;;5054061;28;20031;-68
2023/04/10 06:46:59;;;;;;;9.50;4.10;;;;;;;;;;5054168;28;20393;-69
2023/04/10 06:49:25;;;;;;;4.68;2.97;;;;;;;;;;5053961;28;20078;-68
2023/04/10 06:51:51;;;;;;;4.63;2.95;;;;;;;;;;5054427;28;20055;-68
2023/04/10 06:54:18;;;;;;;7.88;2.15;;;;;;;;;;5054048;28;20031;-68
2023/04/10 06:56:44;;;;;;;2.72;1.92;;;;;;;;;;5053966;28;20028;-68
2023/04/10 06:59:10;;;;;;;3.65;1.67;;;;;;;;;;5053545;28;20031;-68
2023/04/10 07:01:36;;;;;;;2.25;1.58;;;;;;;;;;5054021;28;20531;-68
2023/04/10 07:04:03;;;;;;;3.35;1.92;;;;;;;;;;5053767;28;20025;-68
2023/04/10 07:06:30;;;;;;;3.10;2.00;;;;;;;;;;5053584;28;20027;-68
2023/04/10 07:08:56;;;;;;;4.57;1.90;;;;;;;;;;5053908;28;20032;-68
2023/04/10 07:11:22;;;;;;;3.08;2.00;;;;;;;;;;5053535;28;20381;-68
2023/04/10 07:13:52;;;;;;;2.25;1.10;;;;;;;;;;5053913;28;20050;-69
2023/04/10 07:16:18;;;;;;;1.17;0.95;;;;;;;;;;5053704;28;20507;-69
2023/04/10 07:18:44;;;;;;;2.25;1.40;;;;;;;;;;5053237;28;20029;-69
2023/04/10 07:21:12;;;;;;;1.48;1.10;;;;;;;;;;5053394;28;20478;-69
2023/04/10 07:23:38;;;;;;;3.22;1.50;;;;;;;;;;5053570;28;20392;-69
2023/04/10 07:26:05;;;;;;;4.50;1.42;;;;;;;;;;5053146;28;20041;-68
2023/04/10 07:28:32;;;;;;;1.55;1.23;;;;;;;;;;5053390;28;20043;-69
2023/04/10 07:30:58;;;;;;;1.65;1.33;;;;;;;;;;5052767;28;20045;-68
2023/04/10 07:33:24;;;;;;;2.65;1.10;;;;;;;;;;5053342;28;20027;-68
2023/04/10 07:35:51;;;;;;;3.75;1.60;;;;;;;;;;5053082;28;20032;-68
2023/04/10 07:38:17;;;;;;;2.00;1.30;;;;;;;;;;5051913;28;20025;-68
2023/04/10 07:40:44;;;;;;;3.15;1.58;;;;;;;;;;5051830;28;20416;-68
2023/04/10 07:43:10;;;;;;;2.17;1.20;;;;;;;;;;5052947;28;20047;-68
2023/04/10 07:45:37;;;;;;;2.45;1.40;;;;;;;;;;5053086;28;20039;-68
2023/04/10 07:48:05;;;;;;;3.20;1.50;;;;;;;;;;5052807;28;20035;-69
2023/04/10 07:50:31;;;;;;;2.50;1.40;;;;;;;;;;5052844;28;20029;-69
2023/04/10 07:53:02;;;;;;;3.47;1.30;;;;;;;;;;5052958;28;20027;-69
2023/04/10 07:55:28;;;;;;;1.67;1.17;;;;;;;;;;5052007;28;20029;-69
2023/04/10 07:57:55;;;;;;;3.33;1.27;;;;;;;;;;5052861;28;20039;-69
2023/04/10 08:00:21;;;;;;;1.15;0.90;;;;;;;;;;5052595;28;20027;-68
2023/04/10 08:02:47;;;;;;;3.13;1.13;;;;;;;;;;5052383;28;20094;-69
2023/04/10 08:05:14;;;;;;;5.32;2.28;;;;;;;;;;5052615;28;20039;-69
2023/04/10 08:07:40;;;;;;;3.13;1.50;;;;;;;;;;5052603;28;20502;-69
2023/04/10 08:10:07;;;;;;;3.88;1.70;;;;;;;;;;5052356;28;20037;-69
2023/04/10 08:12:34;;;;;;;3.03;1.60;;;;;;;;;;5052513;28;20459;-69
2023/04/10 08:15:00;;;;;;;2.20;1.33;;;;;;;;;;5052390;28;20033;-69
2023/04/10 08:17:26;;;;;;;1.55;1.45;;;;;;;;;;5052186;28;20474;-68
2023/04/10 08:19:53;;;;;;;1.95;1.30;;;;;;;;;;5052530;28;20017;-69
2023/04/10 08:22:19;;;;;;;1.50;1.40;;;;;;;;;;5052385;28;20077;-69
2023/04/10 08:24:45;;;;;;;1.75;1.27;;;;;;;;;;5052376;28;20025;-69
2023/04/10 08:27:12;;;;;;;4.10;1.85;;;;;;;;;;5052089;28;20039;-69
2023/04/10 08:29:39;;;;;;;7.18;4.82;;;;;;;;;;5052340;28;20037;-69
2023/04/10 08:32:05;;;;;;;1.30;1.20;;;;;;;;;;5051869;28;20519;-69
2023/04/10 08:34:31;;;;;;;8.68;4.65;;;;;;;;;;5052196;28;20385;-68
2023/04/10 08:36:58;;;;;;;6.95;2.30;;;;;;;;;;5052436;28;20028;-67
2023/04/10 08:39:24;;;;;;;4.93;1.58;;;;;;;;;;5052184;28;20489;-68
2023/04/10 08:41:50;;;;;;;6.47;1.60;;;;;;;;;;5052356;28;20029;-69
2023/04/10 08:44:17;;;;;;;4.50;1.40;;;;;;;;;;5051374;28;20035;-69
2023/04/10 08:46:44;;;;;;;2.60;1.25;;;;;;;;;;5052048;28;20031;-68
2023/04/10 08:49:17;;;;;;;2.13;1.52;;;;;;;;;;5051996;28;20385;-69
2023/04/10 08:51:51;;;;;;;3.80;1.73;;;;;;;;;;5051830;28;20499;-69
2023/04/10 08:54:19;;;;;;;2.60;1.63;;;;;;;;;;5052031;28;20033;-69
2023/04/10 08:56:48;;;;;;;2.50;1.85;;;;;;;;;;5051927;28;20043;-69
2023/04/10 08:59:14;;;;;;;1.70;1.60;;;;;;;;;;5051588;28;20401;-69
2023/04/10 09:01:40;;;;;;;4.05;2.22;;;;;;;;;;5051881;28;20024;-67
2023/04/10 09:04:07;;;;;;;3.60;2.10;;;;;;;;;;5052089;28;20086;-67
2023/04/10 09:06:33;;;;;;;2.72;1.67;;;;;;;;;;5051761;28;20037;-67
2023/04/10 09:08:59;;;;;;;4.53;1.90;;;;;;;;;;5051835;28;20024;-67
2023/04/10 09:11:46;;;;;;;1.83;1.70;;;;;;;;;;5051806;28;20031;-67
2023/04/10 09:14:21;;;;;;;2.65;1.70;;;;;;;;;;5051471;28;20516;-67
2023/04/10 09:16:48;;;;;;;1.65;1.55;;;;;;;;;;5051625;28;20024;-68
2023/04/10 09:19:29;;;;;;;2.90;1.50;;;;;;;;;;5051794;28;20029;-67
2023/04/10 09:21:55;;;;;;;1.70;1.50;;;;;;;;;;5050527;28;20033;-67
2023/04/10 09:24:25;;;;;;;1.95;1.40;;;;;;;;;;5051794;28;20044;-67
2023/04/10 09:26:51;;;;;;;4.03;1.43;;;;;;;;;;5051706;28;20103;-67
2023/04/10 09:29:18;;;;;;;3.20;1.52;;;;;;;;;;5051309;28;20029;-67
2023/04/10 09:31:45;;;;;;;1.50;1.40;;;;;;;;;;5051200;28;20033;-67
2023/04/10 09:34:14;;;;;;;1.90;1.35;;;;;;;;;;5051892;28;20075;-67
2023/04/10 09:36:42;;;;;;;1.33;1.10;;;;;;;;;;5051773;28;20031;-67
2023/04/10 09:39:09;;;;;;;5.63;1.40;;;;;;;;;;5051211;28;20474;-67
2023/04/10 09:41:46;;;;;;;1.08;1.00;;;;;;;;;;5051646;28;20029;-67
2023/04/10 09:44:13;;;;;;;1.80;1.30;;;;;;;;;;5051332;28;20484;-67
2023/04/10 09:46:40;;;;;;;1.63;1.20;;;;;;;;;;5051261;28;20053;-67
2023/04/10 09:49:08;;;;;;;1.30;1.20;;;;;;;;;;5051430;28;20027;-67
2023/04/10 09:51:35;;;;;;;1.70;1.40;;;;;;;;;;5051594;28;20029;-67
2023/04/10 09:54:05;;;;;;;1.40;1.30;;;;;;;;;;5051506;28;20041;-67
2023/04/10 09:56:33;;;;;;;2.53;1.50;;;;;;;;;;5055158;28;20028;-67
2023/04/10 09:59:00;;;;;;;2.85;1.30;;;;;;;;;;5054770;28;20473;-67
2023/04/10 10:01:28;;;;;;;1.35;1.20;;;;;;;;;;5055262;28;20044;-67
2023/04/10 10:03:55;;;;;;;1.40;1.30;;;;;;;;;;5054696;28;20385;-67
2023/04/10 10:06:22;;;;;;;1.40;1.30;;;;;;;;;;5054801;28;20405;-67
2023/04/10 10:08:49;;;;;;;2.90;1.25;;;;;;;;;;5054976;28;20050;-67
2023/04/10 10:11:18;;;;;;;1.55;1.30;;;;;;;;;;5054522;28;20416;-66
2023/04/10 10:13:48;;;;;;;4.75;1.42;;;;;;;;;;5053702;28;20023;-66
2023/04/10 10:16:18;;;;;;;2.13;1.50;;;;;;;;;;5054629;28;20397;-67
2023/04/10 10:18:55;;;;;;;1.52;1.25;;;;;;;;;;5054780;28;20021;-67
2023/04/10 10:21:22;;;;;;;1.42;1.27;;;;;;;;;;5054545;28;20028;-67
2023/04/10 10:23:53;;;;;;;3.88;1.60;;;;;;;;;;5055097;28;20020;-67
2023/04/10 10:26:23;;;;;;;3.15;1.30;;;;;;;;;;5055001;28;20021;-67
2023/04/10 10:28:53;;;;;;;1.77;1.30;;;;;;;;;;5054642;28;20383;-67
2023/04/10 10:31:22;;;;;;;2.95;1.27;;;;;;;;;;5054000;28;20295;-67
2023/04/10 10:33:51;;;;;;;4.53;1.33;;;;;;;;;;5054401;28;20413;-67
2023/04/10 10:36:19;;;;;;;2.85;1.30;;;;;;;;;;5054584;28;20022;-67
2023/04/10 10:38:50;;;;;;;3.17;1.50;;;;;;;;;;5054265;28;20511;-67
2023/04/10 10:41:24;;;;;;;1.70;1.40;;;;;;;;;;5054033;28;20578;-67
2023/04/10 10:44:00;;;;;;;2.63;1.63;;;;;;;;;;5054028;28;20029;-67
2023/04/10 10:46:40;;;;;;;2.08;1.63;;;;;;;;;;5054129;28;20481;-67
2023/04/10 10:49:06;;;;;;;3.17;1.52;;;;;;;;;;5054213;28;20029;-67
2023/04/10 10:51:43;;;;;;;3.65;1.40;;;;;;;;;;5086489;28;20045;-67
2023/04/10 10:54:28;;;;;;;3.63;1.63;;;;;;;;;;5054142;28;20024;-67
2023/04/10 10:56:54;;;;;;;4.68;2.40;;;;;;;;;;5053764;28;20021;-67
2023/04/10 10:59:59;;;;;;;5.30;2.50;;;;;;;;;;5053759;28;20478;-67
2023/04/10 11:02:26;;;;;;;2.67;1.27;;;;;;;;;;5031658;28;20026;-67
2023/04/10 11:04:52;;;;;;;2.28;1.10;;;;;;;;;;5031708;28;20025;-67
2023/04/10 11:07:18;;;;;;;4.53;1.10;;;;;;;;;;5030821;28;20417;-67
2023/04/10 11:09:48;;;;;;;2.35;1.20;;;;;;;;;;5031616;28;20160;-67
2023/04/10 11:12:15;;;;;;;1.65;0.90;;;;;;;;;;5031775;28;20493;-67
2023/04/10 11:14:44;;;;;;;1.30;1.20;;;;;;;;;;5031293;28;20045;-67
2023/04/10 11:17:11;;;;;;;2.53;0.75;;;;;;;;;;5032010;28;20079;-67
2023/04/10 11:19:55;;;;;;;2.72;1.30;;;;;;;;;;5031832;28;20032;-67
2023/04/10 11:22:21;;;;;;;2.78;1.35;;;;;;;;;;5031446;28;20037;-67
2023/04/10 11:24:52;;;;;;;2.60;1.10;;;;;;;;;;5031549;28;20035;-67
2023/04/10 11:27:37;;;;;;;4.05;1.10;;;;;;;;;;5031152;28;20044;-67
2023/04/10 11:30:04;;;;;;;0.93;0.90;;;;;;;;;;5031360;28;20049;-67
2023/04/10 11:32:41;;;;;;;1.50;0.93;;;;;;;;;;5036350;28;20033;-67
2023/04/10 11:35:07;;;;;;;1.00;0.90;;;;;;;;;;5053527;28;20021;-68
2023/04/10 11:37:33;;;;;;;2.50;1.02;;;;;;;;;;5053226;28;20028;-67
2023/04/10 11:40:04;;;;;;;3.13;1.00;;;;;;;;;;5052858;28;20373;-67
2023/04/10 11:42:30;;;;;;;3.88;0.95;;;;;;;;;;5053145;28;20494;-67
2023/04/10 11:44:58;;;;;;;1.25;0.98;;;;;;;;;;5053377;28;20074;-67
2023/04/10 11:47:25;;;;;;;1.75;1.02;;;;;;;;;;5053129;28;20033;-67
2023/04/10 11:49:57;;;;;;;1.13;1.02;;;;;;;;;;5052931;28;20439;-67
2023/04/10 11:52:26;;;;;;;1.77;0.82;;;;;;;;;;5053347;28;20225;-67
2023/04/10 11:54:52;;;;;;;0.80;0.80;;;;;;;;;;5052980;28;20539;-67
2023/04/10 11:57:19;;;;;;;3.33;0.90;;;;;;;;;;5053233;28;20028;-67
2023/04/10 11:59:50;;;;;;;1.90;1.00;;;;;;;;;;5052613;28;20017;-67
2023/04/10 12:02:16;;;;;;;1.67;1.13;;;;;;;;;;5051730;28;20049;-67
2023/04/10 12:04:43;;;;;;;1.23;0.90;;;;;;;;;;5052898;28;20412;-67
2023/04/10 12:07:09;;;;;;;1.10;0.90;;;;;;;;;;5052827;28;20397;-66
2023/04/10 12:09:36;;;;;;;1.40;0.82;;;;;;;;;;5052395;28;20478;-67
2023/04/10 12:12:03;;;;;;;1.48;1.00;;;;;;;;;;5052621;28;20498;-66
2023/04/10 12:14:34;;;;;;;1.15;0.90;;;;;;;;;;5052812;28;20032;-67
2023/04/10 12:17:00;;;;;;;;;;;;;;;;;;5052858;28;20017;-67
2023/04/10 12:19:26;;;;;;;1.15;0.93;;;;;;;;;;5052618;28;20350;-67
2023/04/10 12:21:53;;;;;;;1.90;0.93;;;;;;;;;;5051133;28;20036;-67
2023/04/10 12:24:38;;;;;;;1.33;1.08;;;;;;;;;;5052653;28;20169;-67
2023/04/10 12:27:04;;;;;;;3.85;2.67;;;;;;;;;;5052321;28;20029;-67
2023/04/10 12:29:30;;;;;;;3.58;2.03;;;;;;;;;;5052400;28;20481;-66
2023/04/10 12:31:57;;;;;;;1.67;0.93;;;;;;;;;;5051925;28;20041;-67
2023/04/10 12:34:24;;;;;;;4.28;2.40;;;;;;;;;;5052320;28;20017;-67
2023/04/10 12:36:53;;;;;;;1.23;1.10;;;;;;;;;;5052142;28;20029;-67
2023/04/10 12:39:23;;;;;;;1.85;1.50;;;;;;;;;;5052122;28;20021;-67
2023/04/10 12:41:49;;;;;;;2.33;1.23;;;;;;;;;;5052518;28;20138;-68
2023/04/10 12:44:17;;;;;;;5.97;2.63;;;;;;;;;;5052026;28;20760;-68
2023/04/10 12:46:44;;;;;;;2.20;1.30;;;;;;;;;;5052010;28;20033;-68
2023/04/10 12:49:17;;;;;;;4.60;1.40;;;;;;;;;;5052014;28;20031;-68
2023/04/10 12:51:44;;;;;;;5.50;2.53;;;;;;;;;;5051860;28;20035;-69
2023/04/10 12:54:10;;;;;;;1.60;1.00;;;;;;;;;;5052008;28;20500;-69
2023/04/10 12:56:43;;;;;;;4.47;1.42;;;;;;;;;;5051806;28;20028;-69
2023/04/10 12:59:09;;;;;;;2.00;1.10;;;;;;;;;;5051606;28;20385;-69
2023/04/10 13:01:39;;;;;;;1.23;0.88;;;;;;;;;;5052030;28;20019;-68
2023/04/10 13:04:06;;;;;;;3.22;1.15;;;;;;;;;;5051971;28;20025;-69
2023/04/10 13:06:32;;;;;;;0.73;0.70;;;;;;;;;;5051672;28;20028;-69
2023/04/10 13:08:58;;;;;;;4.13;1.20;;;;;;;;;;5052025;28;20035;-68
2023/04/10 13:11:24;;;;;;;3.22;1.08;;;;;;;;;;5051871;28;20028;-68
2023/04/10 13:13:51;;;;;;;1.83;1.25;;;;;;;;;;5052128;28;20029;-69
2023/04/10 13:16:17;;;;;;;3.22;0.90;;;;;;;;;;5051707;28;20090;-69
2023/04/10 13:18:44;;;;;;;1.30;0.98;;;;;;;;;;5051801;28;20059;-68
2023/04/10 13:21:10;;;;;;;3.60;0.95;;;;;;;;;;5051461;28;20351;-69
2023/04/10 13:23:36;;;;;;;1.65;0.90;;;;;;;;;;5051651;28;20554;-69
2023/04/10 13:26:03;;;;;;;6.05;1.10;;;;;;;;;;5051774;28;20021;-69
2023/04/10 13:28:29;;;;;;;0.90;0.80;;;;;;;;;;5051610;28;20025;-69
2023/04/10 13:30:57;;;;;;;4.25;1.27;;;;;;;;;;5054877;28;20504;-68
2023/04/10 13:33:23;;;;;;;4.28;1.38;;;;;;;;;;5055898;28;20029;-69
2023/04/10 13:35:50;;;;;;;1.65;1.05;;;;;;;;;;5055120;28;20029;-69
2023/04/10 13:38:16;;;;;;;5.80;0.95;;;;;;;;;;5055961;28;20094;-68
2023/04/10 13:40:42;;;;;;;5.85;1.40;;;;;;;;;;5055439;28;20075;-69
2023/04/10 13:43:09;;;;;;;1.23;1.00;;;;;;;;;;5055262;28;20025;-69
2023/04/10 13:45:35;;;;;;;2.65;0.90;;;;;;;;;;5055295;28;20396;-69
2023/04/10 13:48:02;;;;;;;6.45;1.05;;;;;;;;;;5055241;28;20456;-69
2023/04/10 13:50:29;;;;;;;3.67;1.02;;;;;;;;;;5055084;28;20044;-68
2023/04/10 13:52:55;;;;;;;3.08;1.30;;;;;;;;;;5054993;28;20021;-69
2023/04/10 13:55:21;;;;;;;3.00;1.80;;;;;;;;;;5054995;28;20024;-68
2023/04/10 13:57:48;;;;;;;3.05;1.20;;;;;;;;;;5055168;28;20377;-69
2023/04/10 14:00:14;;;;;;;6.25;1.17;;;;;;;;;;5055008;28;20032;-68
2023/04/10 14:02:41;;;;;;;4.30;1.20;;;;;;;;;;5055423;28;20033;-69
2023/04/10 14:05:07;;;;;;;7.15;1.17;;;;;;;;;;5054908;28;20029;-69
2023/04/10 14:07:34;;;;;;;1.52;1.23;;;;;;;;;;5054990;28;20025;-69
2023/04/10 14:10:00;;;;;;;2.17;1.05;;;;;;;;;;5054713;28;20031;-68
2023/04/10 14:12:27;;;;;;;3.05;1.33;;;;;;;;;;5054887;28;20367;-68
2023/04/10 14:14:53;;;;;;;4.20;1.40;;;;;;;;;;5055257;28;20013;-68
2023/04/10 14:17:20;;;;;;;2.80;1.10;;;;;;;;;;5054727;28;20029;-69
2023/04/10 14:19:50;;;;;;;4.65;1.30;;;;;;;;;;5054687;28;20027;-68
2023/04/10 14:22:16;;;;;;;2.83;1.50;;;;;;;;;;5054798;28;20466;-69
2023/04/10 14:24:43;;;;;;;4.28;2.30;;;;;;;;;;5054563;28;20263;-68
2023/04/10 14:27:09;;;;;;;1.88;1.50;;;;;;;;;;5054507;28;20033;-69
2023/04/10 14:29:35;;;;;;;5.75;2.15;;;;;;;;;;5054635;28;20040;-68
2023/04/10 14:32:02;;;;;;;3.80;1.98;;;;;;;;;;5054491;28;20039;-68
2023/04/10 14:34:28;;;;;;;2.47;1.60;;;;;;;;;;5054349;28;20025;-68
2023/04/10 14:36:55;;;;;;;2.92;1.30;;;;;;;;;;5054619;28;20031;-69
2023/04/10 14:39:22;;;;;;;4.38;2.10;;;;;;;;;;5052892;28;20028;-68
2023/04/10 14:41:49;;;;;;;5.07;2.80;;;;;;;;;;5053271;28;20029;-69
2023/04/10 14:44:15;;;;;;;4.05;2.70;;;;;;;;;;5054588;28;20017;-69
2023/04/10 14:46:42;;;;;;;5.65;2.13;;;;;;;;;;5054467;28;20031;-69